Time;durP1;ratioP1;P1;durP2;ratioP2;P2;SDS_P1;SDS_P2;PMS_P1;PMS_P2;Temp;Humidity;BMP_temperature;BMP_pressure;BME280_temperature;BME280_humidity;BME280_pressure;Samples;Min_cycle;Max_cycle;Signal;HPM_P1;HPM_P2
2021/04/20 00:02:07;;;;;;;14.10;12.03;;;8.30;99.90;;;;;;5016443;28;20480;-74
2021/04/20 00:04:33;;;;;;;14.37;11.83;;;8.20;99.90;;;;;;5016359;28;20424;-75
2021/04/20 00:06:58;;;;;;;13.73;11.20;;;8.20;99.90;;;;;;5016846;28;20211;-74
2021/04/20 00:09:24;;;;;;;12.83;9.97;;;8.10;99.90;;;;;;5017127;28;20541;-74
2021/04/20 00:11:49;;;;;;;11.53;9.93;;;8.00;99.90;;;;;;5016723;28;20204;-74
2021/04/20 00:14:16;;;;;;;12.13;10.60;;;7.90;99.90;;;;;;5016152;28;20209;-74
2021/04/20 00:16:42;;;;;;;15.07;11.00;;;7.90;99.90;;;;;;5016397;28;20278;-74
2021/04/20 00:19:08;;;;;;;12.43;10.00;;;7.80;99.90;;;;;;5016396;28;20402;-74
2021/04/20 00:21:35;;;;;;;12.33;11.03;;;7.80;99.90;;;;;;5015416;28;20408;-74
2021/04/20 00:24:01;;;;;;;13.80;11.63;;;7.80;99.90;;;;;;5016724;28;20448;-74
2021/04/20 00:26:27;;;;;;;13.40;11.00;;;7.80;99.90;;;;;;5017495;28;20415;-74
2021/04/20 00:28:53;;;;;;;12.33;10.60;;;7.80;99.90;;;;;;5023820;28;20476;-74
2021/04/20 00:31:18;;;;;;;16.43;10.33;;;7.80;99.90;;;;;;5028749;28;20178;-75
2021/04/20 00:33:44;;;;;;;15.07;11.37;;;7.80;99.90;;;;;;5022948;28;20447;-74
2021/04/20 00:36:10;;;;;;;15.07;10.50;;;7.70;99.90;;;;;;5029955;28;20184;-74
2021/04/20 00:38:37;;;;;;;13.93;10.80;;;7.70;99.90;;;;;;5017889;28;20267;-74
2021/04/20 00:41:09;;;;;;;12.70;11.30;;;7.70;99.90;;;;;;5017320;28;20505;-74
2021/04/20 00:43:38;;;;;;;12.97;10.30;;;7.70;99.90;;;;;;5025238;28;20414;-74
2021/04/20 00:46:12;;;;;;;13.10;10.67;;;7.70;99.90;;;;;;5016446;28;20452;-74
2021/04/20 00:48:38;;;;;;;12.73;10.20;;;7.70;99.90;;;;;;5015999;28;20451;-74
2021/04/20 00:51:05;;;;;;;12.30;10.33;;;7.70;99.90;;;;;;5016394;28;20406;-74
2021/04/20 00:53:31;;;;;;;14.00;10.80;;;7.70;99.90;;;;;;5016119;28;20415;-74
2021/04/20 00:55:57;;;;;;;12.20;10.73;;;7.60;99.90;;;;;;5015488;28;20783;-74
2021/04/20 00:58:23;;;;;;;12.00;9.90;;;7.60;99.90;;;;;;5015860;28;20188;-74
2021/04/20 01:00:50;;;;;;;12.43;10.37;;;7.60;99.90;;;;;;5015843;28;20483;-74
2021/04/20 01:03:16;;;;;;;13.70;10.33;;;7.60;99.90;;;;;;5015355;28;20166;-74
2021/04/20 01:05:42;;;;;;;13.90;10.27;;;7.60;99.90;;;;;;5015045;28;20437;-74
2021/04/20 01:08:10;;;;;;;11.03;9.53;;;7.70;99.90;;;;;;5013922;28;20794;-74
2021/04/20 01:10:45;;;;;;;12.23;10.77;;;7.80;99.90;;;;;;5015378;28;20430;-74
2021/04/20 01:13:11;;;;;;;12.60;10.70;;;7.90;99.90;;;;;;5015161;28;20460;-74
2021/04/20 01:15:41;;;;;;;14.13;10.57;;;7.90;99.90;;;;;;5015344;28;20532;-74
2021/04/20 01:18:15;;;;;;;10.93;9.80;;;7.90;99.90;;;;;;5014118;28;20430;-74
2021/04/20 01:20:50;;;;;;;13.90;10.70;;;8.00;99.90;;;;;;5015381;28;20497;-74
2021/04/20 01:23:27;;;;;;;12.57;10.07;;;7.90;99.90;;;;;;5015124;28;20405;-74
2021/04/20 01:25:55;;;;;;;12.40;11.10;;;7.90;99.90;;;;;;5015074;28;20450;-74
2021/04/20 01:28:21;;;;;;;12.43;9.50;;;7.90;99.90;;;;;;5014827;28;20462;-74
2021/04/20 01:30:48;;;;;;;14.83;10.60;;;8.00;99.90;;;;;;5015223;28;20405;-74
2021/04/20 01:33:13;;;;;;;11.13;10.00;;;8.00;99.90;;;;;;5014696;28;20416;-74
2021/04/20 01:35:40;;;;;;;15.20;10.70;;;8.00;99.90;;;;;;5014855;28;20462;-74
2021/04/20 01:38:06;;;;;;;13.83;10.53;;;7.90;99.90;;;;;;5014512;28;20241;-74
2021/04/20 01:40:32;;;;;;;12.10;10.33;;;7.80;99.90;;;;;;5014978;28;20412;-74
2021/04/20 01:43:02;;;;;;;13.35;11.77;;;7.70;99.90;;;;;;5013294;28;20419;-74
2021/04/20 01:45:29;;;;;;;13.67;11.63;;;7.70;99.90;;;;;;5013555;28;20222;-74
2021/04/20 01:47:55;;;;;;;13.93;10.47;;;7.70;99.90;;;;;;5014001;28;20450;-74
2021/04/20 01:50:25;;;;;;;14.47;10.83;;;7.60;99.90;;;;;;5014801;28;20498;-74
2021/04/20 01:52:51;;;;;;;10.60;9.10;;;7.60;99.90;;;;;;5014967;28;20766;-74
2021/04/20 01:55:17;;;;;;;12.33;9.90;;;7.60;99.90;;;;;;5015041;28;20554;-74
2021/04/20 01:57:46;;;;;;;12.13;10.00;;;7.60;99.90;;;;;;5012626;28;20506;-74
2021/04/20 02:00:16;;;;;;;12.77;10.87;;;7.50;99.90;;;;;;5014524;28;20183;-74
2021/04/20 02:02:42;;;;;;;12.10;10.20;;;7.50;99.90;;;;;;5014883;28;20404;-74
2021/04/20 02:05:09;;;;;;;12.80;9.60;;;7.40;99.90;;;;;;5014802;28;20448;-74
2021/04/20 02:07:36;;;;;;;12.53;9.50;;;7.30;99.90;;;;;;5019889;28;20452;-74
2021/04/20 02:10:05;;;;;;;12.67;10.10;;;7.30;99.90;;;;;;5037003;28;20411;-74
2021/04/20 02:12:30;;;;;;;12.23;10.73;;;7.20;99.90;;;;;;5035724;28;20415;-74
2021/04/20 02:14:56;;;;;;;16.53;10.07;;;7.20;99.90;;;;;;5014188;28;20463;-74
2021/04/20 02:17:23;;;;;;;13.70;10.20;;;7.20;99.90;;;;;;5014231;28;20477;-74
2021/04/20 02:19:50;;;;;;;12.00;9.67;;;7.20;99.90;;;;;;5013836;28;20294;-74
2021/04/20 02:22:16;;;;;;;12.67;10.23;;;7.30;99.90;;;;;;5013867;28;20421;-74
2021/04/20 02:24:42;;;;;;;13.37;10.70;;;7.20;99.90;;;;;;5014514;28;20885;-74
2021/04/20 02:27:08;;;;;;;15.67;10.23;;;7.20;99.90;;;;;;5014261;28;20438;-74
2021/04/20 02:29:34;;;;;;;14.03;10.90;;;7.10;99.90;;;;;;5012572;28;20946;-74
2021/04/20 02:32:00;;;;;;;12.77;10.23;;;7.10;99.90;;;;;;5014198;28;20457;-74
2021/04/20 02:34:26;;;;;;;14.07;9.97;;;7.10;99.90;;;;;;5013819;28;20277;-74
2021/04/20 02:36:54;;;;;;;13.60;10.70;;;7.00;99.90;;;;;;5014307;28;20900;-74
2021/04/20 02:39:19;;;;;;;15.90;11.33;;;7.00;99.90;;;;;;5012647;28;20249;-74
2021/04/20 02:41:47;;;;;;;11.83;10.53;;;6.90;99.90;;;;;;5014425;28;20783;-74
2021/04/20 02:44:14;;;;;;;15.10;10.60;;;7.00;99.90;;;;;;5013598;28;20175;-74
2021/04/20 02:46:42;;;;;;;12.90;10.57;;;7.00;99.90;;;;;;5013489;28;20459;-74
2021/04/20 02:49:11;;;;;;;14.23;10.20;;;7.00;99.90;;;;;;5014136;28;20403;-74
2021/04/20 02:51:39;;;;;;;11.57;10.37;;;6.90;99.90;;;;;;5013846;28;20435;-74
2021/04/20 02:54:07;;;;;;;15.83;11.40;;;6.80;99.90;;;;;;5014111;28;20777;-74
2021/04/20 02:56:33;;;;;;;13.83;11.07;;;6.80;99.90;;;;;;5014411;28;20760;-74
2021/04/20 02:59:00;;;;;;;13.83;11.17;;;6.80;99.90;;;;;;5015060;28;20411;-74
2021/04/20 03:01:30;;;;;;;13.23;10.33;;;6.80;99.90;;;;;;5013994;28;20481;-74
2021/04/20 03:03:56;;;;;;;12.40;10.70;;;6.80;99.90;;;;;;5013920;28;20438;-74
2021/04/20 03:06:22;;;;;;;12.57;10.63;;;6.80;99.90;;;;;;5014725;28;20412;-74
2021/04/20 03:08:49;;;;;;;13.57;10.50;;;6.70;99.90;;;;;;5027434;28;20418;-74
2021/04/20 03:11:33;;;;;;;15.20;10.60;;;6.70;99.90;;;;;;5038112;28;20452;-74
2021/04/20 03:14:02;;;;;;;13.30;10.30;;;6.70;99.90;;;;;;5032095;28;20476;-74
2021/04/20 03:16:28;;;;;;;13.63;11.10;;;6.70;99.90;;;;;;5014881;28;20413;-74
2021/04/20 03:18:54;;;;;;;14.00;11.50;;;6.70;99.90;;;;;;5014485;28;20430;-74
2021/04/20 03:21:21;;;;;;;14.93;11.50;;;6.60;99.90;;;;;;5013813;28;20227;-74
2021/04/20 03:23:48;;;;;;;12.10;10.60;;;6.60;99.90;;;;;;5013248;28;20184;-74
2021/04/20 03:26:25;;;;;;;14.67;10.10;;;6.60;99.90;;;;;;5013514;28;20430;-74
2021/04/20 03:28:55;;;;;;;12.93;10.07;;;6.70;99.90;;;;;;5013775;28;20441;-74
2021/04/20 03:31:21;;;;;;;13.93;10.10;;;6.70;99.90;;;;;;5011977;28;20445;-74
2021/04/20 03:33:52;;;;;;;14.53;10.00;;;6.70;99.90;;;;;;5016661;28;20418;-74
2021/04/20 03:36:25;;;;;;;14.60;11.33;;;6.70;99.90;;;;;;5017424;28;20556;-74
2021/04/20 03:38:59;;;;;;;13.67;10.50;;;6.70;99.90;;;;;;5015973;28;20510;-74
2021/04/20 03:41:29;;;;;;;12.27;10.27;;;6.80;99.90;;;;;;5015414;28;20469;-74
2021/04/20 03:43:58;;;;;;;12.43;10.80;;;6.80;99.90;;;;;;5017138;28;20847;-74
2021/04/20 03:46:28;;;;;;;14.80;10.47;;;6.80;99.90;;;;;;5016093;28;20454;-74
2021/04/20 03:48:58;;;;;;;12.63;11.30;;;6.80;99.90;;;;;;5017285;28;20891;-74
2021/04/20 03:51:28;;;;;;;13.90;11.00;;;6.80;99.90;;;;;;5014649;28;20438;-74
2021/04/20 03:53:56;;;;;;;12.57;10.30;;;6.80;99.90;;;;;;5016267;28;20870;-74
2021/04/20 03:56:26;;;;;;;12.40;10.70;;;6.80;99.90;;;;;;5016742;28;20414;-74
2021/04/20 03:58:55;;;;;;;14.37;10.60;;;6.80;99.90;;;;;;5016751;28;20398;-74
2021/04/20 04:01:22;;;;;;;13.80;10.67;;;6.90;99.90;;;;;;5016473;28;20442;-74
2021/04/20 04:03:49;;;;;;;16.27;12.37;;;6.90;99.90;;;;;;5016217;28;20518;-74
2021/04/20 04:06:18;;;;;;;16.03;11.10;;;6.90;99.90;;;;;;5016262;28;20433;-74
2021/04/20 04:08:45;;;;;;;15.07;11.10;;;6.80;99.90;;;;;;5016705;28;20411;-74
2021/04/20 04:11:13;;;;;;;15.57;11.70;;;6.70;99.90;;;;;;5016595;28;20545;-74
2021/04/20 04:13:42;;;;;;;14.43;11.07;;;6.60;99.90;;;;;;5015514;28;20441;-74
2021/04/20 04:16:10;;;;;;;13.87;11.60;;;6.50;99.90;;;;;;5016740;28;20732;-74
2021/04/20 04:18:37;;;;;;;13.43;11.47;;;6.60;99.90;;;;;;5016473;28;20423;-74
2021/04/20 04:21:05;;;;;;;14.03;11.53;;;6.60;99.90;;;;;;5015951;28;20654;-74
2021/04/20 04:23:50;;;;;;;12.70;10.87;;;6.60;99.90;;;;;;5015830;28;20425;-74
2021/04/20 04:26:21;;;;;;;14.20;10.90;;;6.70;99.90;;;;;;5015935;28;20429;-74
2021/04/20 04:28:51;;;;;;;19.93;11.43;;;6.70;99.90;;;;;;4997213;28;20422;-74
2021/04/20 04:31:18;;;;;;;12.57;10.37;;;6.70;99.90;;;;;;5003463;28;20435;-74
2021/04/20 04:33:45;;;;;;;15.90;11.77;;;6.70;99.90;;;;;;5006871;28;20750;-74
2021/04/20 04:36:11;;;;;;;13.70;10.80;;;6.80;99.90;;;;;;5015656;28;20476;-74
2021/04/20 04:38:38;;;;;;;14.43;10.70;;;6.80;99.90;;;;;;5009443;28;20446;-74
2021/04/20 04:41:05;;;;;;;14.93;11.50;;;6.80;99.90;;;;;;5003228;28;20419;-73
2021/04/20 04:43:31;;;;;;;14.07;12.20;;;6.80;99.90;;;;;;5004491;28;20447;-73
2021/04/20 04:45:57;;;;;;;16.20;11.17;;;6.80;99.90;;;;;;5005720;28;20454;-73
2021/04/20 04:48:25;;;;;;;14.70;12.33;;;6.80;99.90;;;;;;4997226;28;20451;-73
2021/04/20 04:50:52;;;;;;;16.27;11.70;;;6.90;99.90;;;;;;5008712;28;20437;-73
2021/04/20 04:53:18;;;;;;;12.93;10.83;;;6.90;99.90;;;;;;5002311;28;20457;-73
2021/04/20 04:55:44;;;;;;;15.87;12.10;;;6.90;99.90;;;;;;5004097;28;20554;-74
2021/04/20 04:58:10;;;;;;;14.73;11.50;;;6.90;99.90;;;;;;5002816;28;21018;-74
2021/04/20 05:00:36;;;;;;;15.43;11.80;;;6.90;99.90;;;;;;5011904;28;20629;-74
2021/04/20 05:03:05;;;;;;;12.57;10.40;;;6.80;99.90;;;;;;5002687;28;20447;-74
2021/04/20 05:05:31;;;;;;;15.40;11.53;;;6.80;99.90;;;;;;5009464;28;20476;-74
2021/04/20 05:07:58;;;;;;;13.93;11.40;;;6.80;99.90;;;;;;5014134;28;20457;-74
2021/04/20 05:10:24;;;;;;;15.37;12.17;;;6.90;99.90;;;;;;5014267;28;20419;-74
2021/04/20 05:12:51;;;;;;;13.40;10.90;;;6.80;99.90;;;;;;5009923;28;20529;-74
2021/04/20 05:15:17;;;;;;;14.60;11.40;;;6.90;99.90;;;;;;5008833;28;20676;-74
2021/04/20 05:17:44;;;;;;;15.63;11.90;;;6.90;99.90;;;;;;5004250;28;20454;-74
2021/04/20 05:20:18;;;;;;;16.90;12.10;;;7.00;99.90;;;;;;5001508;28;20820;-74
2021/04/20 05:22:48;;;;;;;17.27;11.87;;;7.00;99.90;;;;;;5003746;28;20446;-74
2021/04/20 05:25:16;;;;;;;15.23;12.53;;;7.00;99.90;;;;;;5001853;28;20473;-74
2021/04/20 05:27:43;;;;;;;14.10;12.00;;;7.00;99.90;;;;;;5027323;28;20458;-74
2021/04/20 05:30:09;;;;;;;18.07;12.10;;;7.00;99.90;;;;;;5038519;28;20438;-74
2021/04/20 05:32:40;;;;;;;14.30;11.60;;;7.00;99.90;;;;;;5020345;28;20445;-75
2021/04/20 05:35:10;;;;;;;15.37;12.40;;;7.00;99.90;;;;;;5018510;28;20461;-75
2021/04/20 05:37:39;;;;;;;17.10;12.87;;;7.10;99.90;;;;;;5018988;28;21064;-74
2021/04/20 05:40:09;;;;;;;17.23;12.40;;;7.10;99.90;;;;;;5020720;28;20473;-75
2021/04/20 05:42:41;;;;;;;19.17;12.07;;;7.10;99.90;;;;;;5017933;28;21642;-75
2021/04/20 05:45:08;;;;;;;16.77;11.33;;;7.20;99.90;;;;;;5014688;28;20963;-75
2021/04/20 05:47:38;;;;;;;13.67;12.00;;;7.20;99.90;;;;;;5022546;28;20446;-75
2021/04/20 05:50:06;;;;;;;18.00;12.80;;;7.30;99.90;;;;;;5011696;28;21059;-75
2021/04/20 05:52:36;;;;;;;16.60;13.30;;;7.30;99.90;;;;;;5022894;28;21219;-75
2021/04/20 05:55:03;;;;;;;16.90;14.00;;;7.20;99.90;;;;;;5014688;28;20573;-75
2021/04/20 05:57:29;;;;;;;17.03;12.37;;;7.30;99.90;;;;;;5023728;28;20468;-75
2021/04/20 05:59:57;;;;;;;19.90;13.80;;;7.30;99.90;;;;;;5016808;28;20440;-75
2021/04/20 06:02:25;;;;;;;16.67;12.83;;;7.40;99.90;;;;;;5027791;28;20191;-75
2021/04/20 06:04:54;;;;;;;18.57;12.90;;;7.40;99.90;;;;;;5011476;28;20863;-74
2021/04/20 06:07:20;;;;;;;22.90;13.87;;;7.50;99.90;;;;;;5020234;28;20824;-75
2021/04/20 06:09:47;;;;;;;16.00;13.30;;;7.50;99.90;;;;;;5018907;28;20416;-75
2021/04/20 06:12:13;;;;;;;16.30;13.73;;;7.60;99.90;;;;;;5026687;28;20927;-75
2021/04/20 06:14:40;;;;;;;18.87;12.87;;;7.60;99.90;;;;;;5022493;28;20476;-75
2021/04/20 06:17:07;;;;;;;16.77;13.00;;;7.60;99.90;;;;;;5026949;28;20453;-78
2021/04/20 06:19:35;;;;;;;18.77;13.10;;;7.70;99.90;;;;;;5034799;28;20425;-74
2021/04/20 06:22:01;;;;;;;19.23;14.80;;;7.70;99.90;;;;;;5032154;28;20411;-75
2021/04/20 06:24:28;;;;;;;23.03;14.77;;;7.80;99.90;;;;;;5027170;28;21110;-74
2021/04/20 06:26:55;;;;;;;19.10;13.33;;;7.90;99.90;;;;;;5030874;28;20477;-75
2021/04/20 06:29:20;;;;;;;18.27;13.70;;;7.90;99.90;;;;;;5021127;28;20451;-75
2021/04/20 06:31:49;;;;;;;18.20;14.67;;;8.00;99.90;;;;;;5023927;28;21156;-75
2021/04/20 06:34:15;;;;;;;17.97;13.93;;;8.10;99.90;;;;;;5016413;28;20691;-75
2021/04/20 06:36:41;;;;;;;19.10;14.43;;;8.10;99.90;;;;;;5030653;28;20439;-75
2021/04/20 06:39:07;;;;;;;17.87;13.97;;;8.20;99.90;;;;;;5019388;28;20452;-75
2021/04/20 06:41:34;;;;;;;21.90;14.47;;;8.30;99.90;;;;;;5023937;28;20902;-75
2021/04/20 06:44:08;;;;;;;18.97;15.57;;;8.40;99.90;;;;;;5017041;28;20523;-75
2021/04/20 06:46:43;;;;;;;24.37;15.60;;;8.40;99.90;;;;;;5027727;28;20450;-75
2021/04/20 06:50:04;;;;;;;22.10;15.80;;;8.50;99.90;;;;;;5019049;28;20433;-74
2021/04/20 06:52:37;;;;;;;21.83;14.30;;;8.60;99.90;;;;;;4915894;29;20440;-74
2021/04/20 06:55:21;;;;;;;22.27;15.47;;;8.70;99.90;;;;;;4924831;29;20478;-75
2021/04/20 06:58:04;;;;;;;21.47;16.10;;;8.80;99.90;;;;;;4924144;29;20541;-74
2021/04/20 07:00:39;;;;;;;24.60;16.53;;;8.80;99.90;;;;;;4914248;29;20426;-74
2021/04/20 07:03:21;;;;;;;24.00;18.03;;;9.00;99.90;;;;;;4909705;29;20978;-75
2021/04/20 07:05:48;;;;;;;22.20;16.70;;;9.00;99.90;;;;;;4909620;29;20438;-75
2021/04/20 07:08:38;;;;;;;23.30;16.00;;;9.10;99.90;;;;;;4900164;29;20517;-75
2021/04/20 07:11:10;;;;;;;22.83;16.90;;;9.20;99.90;;;;;;4908129;29;20449;-77
2021/04/20 07:13:37;;;;;;;19.63;16.07;;;9.30;99.90;;;;;;4919662;29;20677;-75
2021/04/20 07:16:09;;;;;;;20.87;15.70;;;9.40;99.90;;;;;;4929634;29;20450;-76
2021/04/20 07:18:46;;;;;;;22.50;16.70;;;9.50;99.90;;;;;;4917051;29;20475;-76
2021/04/20 07:21:32;;;;;;;22.00;16.63;;;9.60;99.90;;;;;;4911380;29;20441;-76
2021/04/20 07:24:16;;;;;;;18.07;15.00;;;9.70;99.90;;;;;;4928369;29;20437;-76
2021/04/20 07:26:55;;;;;;;22.87;16.30;;;9.80;99.90;;;;;;4909929;29;20457;-76
2021/04/20 07:29:23;;;;;;;20.50;16.57;;;9.90;99.90;;;;;;4971625;28;20444;-75
2021/04/20 07:32:11;;;;;;;21.13;15.97;;;10.00;99.90;;;;;;5020465;28;20422;-75
2021/04/20 07:35:19;;;;;;;21.30;15.77;;;10.10;99.90;;;;;;5029820;28;20450;-75
2021/04/20 07:37:54;;;;;;;20.17;15.47;;;10.20;99.90;;;;;;5027393;28;20457;-74
2021/04/20 07:40:20;;;;;;;18.27;15.03;;;10.40;99.90;;;;;;5021885;28;20946;-76
2021/04/20 07:42:55;;;;;;;24.67;17.63;;;10.40;99.90;;;;;;5021618;28;20449;-75
2021/04/20 07:45:30;;;;;;;21.33;17.03;;;10.60;99.90;;;;;;5020278;28;20185;-74
2021/04/20 07:48:07;;;;;;;23.27;16.40;;;10.70;99.90;;;;;;5025042;28;20987;-74
2021/04/20 07:50:38;;;;;;;21.20;16.93;;;10.80;99.90;;;;;;5022580;28;20438;-74
2021/04/20 07:53:12;;;;;;;24.30;16.70;;;10.90;99.90;;;;;;5025169;28;20441;-74
2021/04/20 07:56:02;;;;;;;21.80;17.80;;;11.00;99.90;;;;;;5023968;28;20496;-74
2021/04/20 07:58:34;;;;;;;22.67;17.00;;;11.10;99.90;;;;;;5024983;28;20959;-75
2021/04/20 08:01:25;;;;;;;21.50;17.37;;;11.20;99.90;;;;;;5023569;28;20630;-74
2021/04/20 08:03:56;;;;;;;20.60;17.40;;;11.30;99.90;;;;;;5024469;28;20468;-74
2021/04/20 08:06:26;;;;;;;25.47;17.30;;;11.50;99.90;;;;;;5024929;28;20414;-73
2021/04/20 08:09:00;;;;;;;21.57;17.20;;;11.60;99.90;;;;;;5024714;28;20851;-73
2021/04/20 08:11:31;;;;;;;20.07;16.10;;;11.70;99.90;;;;;;5024449;28;20410;-73
2021/04/20 08:14:01;;;;;;;20.10;16.00;;;11.90;99.90;;;;;;5024468;28;20465;-73
2021/04/20 08:16:37;;;;;;;22.00;15.47;;;12.00;99.90;;;;;;5021764;28;20458;-73
2021/04/20 08:19:14;;;;;;;22.40;15.37;;;12.10;99.90;;;;;;5024096;28;20508;-73
2021/04/20 08:21:44;;;;;;;16.30;13.40;;;12.30;99.60;;;;;;5025087;28;20425;-74
2021/04/20 08:24:33;;;;;;;18.33;13.70;;;12.40;98.60;;;;;;5023713;28;20452;-74
2021/04/20 08:27:07;;;;;;;15.10;12.80;;;12.50;97.50;;;;;;5024788;28;20442;-74
2021/04/20 08:29:33;;;;;;;15.27;12.60;;;12.70;96.70;;;;;;5025708;28;20425;-74
2021/04/20 08:32:10;;;;;;;17.30;12.80;;;12.80;96.00;;;;;;5023909;28;20435;-74
2021/04/20 08:35:07;;;;;;;18.07;13.00;;;12.90;95.90;;;;;;5023100;28;20556;-74
2021/04/20 08:37:54;;;;;;;16.80;13.83;;;13.00;95.10;;;;;;5025770;28;20900;-74
2021/04/20 08:40:31;;;;;;;16.27;13.93;;;13.20;94.60;;;;;;5024573;28;20848;-76
2021/04/20 08:43:22;;;;;;;18.67;15.60;;;13.40;94.70;;;;;;5024572;28;20652;-74
2021/04/20 08:46:00;;;;;;;23.03;14.73;;;13.50;94.20;;;;;;5025511;28;20417;-73
2021/04/20 08:48:49;;;;;;;18.00;14.47;;;13.60;94.00;;;;;;5024555;28;20448;-74
2021/04/20 08:51:26;;;;;;;27.93;15.43;;;13.80;93.50;;;;;;5027608;28;20426;-74
2021/04/20 08:54:16;;;;;;;24.00;15.50;;;13.90;93.20;;;;;;5043361;28;20578;-74
2021/04/20 08:56:51;;;;;;;15.40;13.23;;;14.00;93.00;;;;;;5039555;28;20439;-73
2021/04/20 08:59:44;;;;;;;16.30;13.30;;;14.20;92.80;;;;;;5025384;28;20410;-74
2021/04/20 09:02:40;;;;;;;22.90;15.00;;;14.40;92.50;;;;;;5023322;28;20469;-73
2021/04/20 09:05:41;;;;;;;27.27;16.77;;;14.40;92.40;;;;;;5022575;28;20434;-74
2021/04/20 09:08:24;;;;;;;20.77;14.13;;;14.40;92.50;;;;;;4988104;28;20436;-73
2021/04/20 09:11:26;;;;;;;20.87;14.40;;;14.30;92.60;;;;;;5021541;28;20488;-76
2021/04/20 09:13:56;;;;;;;18.10;13.73;;;14.30;92.60;;;;;;5023068;28;20962;-74
2021/04/20 09:16:29;;;;;;;20.63;15.00;;;14.30;92.50;;;;;;5023405;28;20465;-74
2021/04/20 09:18:57;;;;;;;18.63;14.70;;;14.40;92.50;;;;;;5023878;28;21006;-74
2021/04/20 09:21:52;;;;;;;19.97;14.83;;;14.40;92.50;;;;;;5022273;28;20460;-74
2021/04/20 09:24:20;;;;;;;19.53;14.60;;;14.50;92.20;;;;;;5021426;28;20447;-74
2021/04/20 09:27:06;;;;;;;16.87;15.07;;;14.60;92.20;;;;;;5022570;28;20441;-74
2021/04/20 09:29:55;;;;;;;21.50;14.57;;;14.70;92.20;;;;;;5022521;28;20751;-74
2021/04/20 09:32:23;;;;;;;18.80;15.90;;;14.70;92.00;;;;;;5022216;28;20417;-75
2021/04/20 09:34:51;;;;;;;15.47;13.83;;;14.70;92.10;;;;;;5022842;28;20469;-74
2021/04/20 09:37:18;;;;;;;16.70;14.83;;;14.80;92.20;;;;;;5021252;28;20962;-73
2021/04/20 09:39:49;;;;;;;15.43;13.83;;;14.80;92.00;;;;;;5022947;28;20414;-74
2021/04/20 09:42:16;;;;;;;15.97;14.27;;;14.90;91.90;;;;;;5023230;28;20836;-74
2021/04/20 09:44:56;;;;;;;18.73;14.13;;;15.00;91.90;;;;;;5021817;28;20515;-74
2021/04/20 09:47:43;;;;;;;26.37;13.93;;;15.10;91.80;;;;;;5023151;28;20804;-74
2021/04/20 09:50:22;;;;;;;17.53;14.00;;;15.10;91.90;;;;;;5024028;28;20420;-74
2021/04/20 09:53:40;;;;;;;15.80;13.23;;;15.00;90.80;;;;;;5023980;28;20413;-74
2021/04/20 09:56:27;;;;;;;19.00;14.60;;;15.00;91.10;;;;;;5001236;28;20478;-74
2021/04/20 09:58:52;;;;;;;16.90;12.83;;;14.90;90.90;;;;;;5003015;28;20835;-74
2021/04/20 10:01:41;;;;;;;23.10;14.30;;;15.00;91.10;;;;;;5001619;28;20414;-75
2021/04/20 10:04:13;;;;;;;23.43;14.90;;;15.10;91.10;;;;;;5011667;28;20232;-74
2021/04/20 10:06:59;;;;;;;17.10;14.43;;;15.20;90.70;;;;;;5011909;28;20450;-74
2021/04/20 10:09:33;;;;;;;14.93;13.30;;;15.30;90.60;;;;;;4979995;28;20432;-74
2021/04/20 10:12:23;;;;;;;15.93;13.60;;;15.30;90.60;;;;;;4999224;28;20429;-73
2021/04/20 10:15:21;;;;;;;20.63;14.17;;;15.40;90.60;;;;;;5001345;28;20589;-74
2021/04/20 10:18:08;;;;;;;15.63;13.80;;;15.50;90.30;;;;;;5000504;28;20443;-73
2021/04/20 10:20:54;;;;;;;14.63;12.63;;;15.60;90.20;;;;;;5000881;28;20844;-74
2021/04/20 10:23:44;;;;;;;14.53;13.13;;;15.80;90.00;;;;;;5001321;28;20488;-75
2021/04/20 10:26:22;;;;;;;14.23;12.83;;;16.00;89.10;;;;;;5000711;28;20522;-74
2021/04/20 10:29:17;;;;;;;14.40;12.20;;;16.20;88.50;;;;;;5000740;28;20816;-74
2021/04/20 10:31:49;;;;;;;14.83;13.43;;;16.30;88.60;;;;;;5011267;28;20424;-74
2021/04/20 10:34:18;;;;;;;16.27;14.57;;;16.30;87.50;;;;;;5021613;28;20465;-75
2021/04/20 10:36:52;;;;;;;16.73;13.20;;;16.30;86.60;;;;;;5022388;28;20516;-72
2021/04/20 10:39:21;;;;;;;14.23;12.50;;;16.40;87.10;;;;;;5023019;28;20502;-73
2021/04/20 10:41:48;;;;;;;13.87;12.47;;;16.20;85.50;;;;;;5026463;28;20512;-73
2021/04/20 10:44:16;;;;;;;14.63;13.07;;;16.20;87.10;;;;;;5027250;28;20424;-74
2021/04/20 10:46:46;;;;;;;16.20;12.60;;;16.20;86.10;;;;;;5027995;28;20433;-74
2021/04/20 10:49:16;;;;;;;15.00;13.03;;;16.20;86.60;;;;;;5026941;28;20918;-74
2021/04/20 10:51:45;;;;;;;14.40;12.90;;;16.20;86.90;;;;;;5028686;28;20455;-74
2021/04/20 10:54:12;;;;;;;16.07;14.20;;;16.30;86.60;;;;;;5026507;28;20499;-75
2021/04/20 10:56:46;;;;;;;14.00;12.60;;;16.30;86.10;;;;;;5028045;28;20433;-74
2021/04/20 10:59:28;;;;;;;18.20;13.50;;;16.20;85.70;;;;;;5027979;28;20417;-74
2021/04/20 11:01:58;;;;;;;18.20;14.97;;;16.10;84.60;;;;;;5027609;28;20425;-74
2021/04/20 11:04:27;;;;;;;14.70;13.27;;;16.00;85.10;;;;;;5028119;28;20437;-74
2021/04/20 11:07:13;;;;;;;13.83;12.47;;;16.00;85.60;;;;;;5028379;28;20487;-74
2021/04/20 11:09:38;;;;;;;14.80;13.30;;;16.10;86.10;;;;;;5028041;28;20414;-74
2021/04/20 11:12:20;;;;;;;16.17;12.70;;;16.30;85.70;;;;;;5028394;28;20745;-74
2021/04/20 11:14:48;;;;;;;17.30;14.20;;;16.30;85.30;;;;;;5026260;28;20243;-74
2021/04/20 11:17:19;;;;;;;14.53;13.00;;;16.30;84.80;;;;;;5028047;28;20449;-74
2021/04/20 11:19:48;;;;;;;17.20;14.83;;;16.10;85.00;;;;;;5032183;28;20485;-73
2021/04/20 11:22:16;;;;;;;14.67;13.13;;;16.10;85.30;;;;;;5029717;28;20425;-74
2021/04/20 11:24:48;;;;;;;15.93;13.80;;;16.00;85.30;;;;;;5032526;28;20442;-73
2021/04/20 11:27:17;;;;;;;15.50;13.53;;;16.00;85.40;;;;;;5031194;28;21004;-74
2021/04/20 11:30:06;;;;;;;14.30;12.80;;;16.00;85.50;;;;;;5033395;28;20927;-74
2021/04/20 11:32:35;;;;;;;14.20;12.70;;;16.00;85.50;;;;;;5029154;28;20450;-74
2021/04/20 11:35:08;;;;;;;15.23;13.67;;;16.10;86.40;;;;;;5032125;28;20485;-73
2021/04/20 11:37:35;;;;;;;14.70;12.63;;;16.30;86.40;;;;;;5029586;28;20496;-73
2021/04/20 11:40:07;;;;;;;17.00;12.17;;;16.40;85.70;;;;;;5025674;28;20426;-73
2021/04/20 11:42:38;;;;;;;15.07;12.73;;;16.40;85.50;;;;;;5028150;28;20910;-73
2021/04/20 11:45:18;;;;;;;15.83;12.60;;;16.50;85.30;;;;;;5033487;28;20441;-73
2021/04/20 11:48:11;;;;;;;20.70;13.93;;;16.50;84.70;;;;;;5033835;28;20528;-74
2021/04/20 11:50:40;;;;;;;13.10;11.57;;;16.60;85.40;;;;;;5035329;28;20429;-74
2021/04/20 11:53:08;;;;;;;16.73;13.87;;;16.60;86.20;;;;;;5027814;28;20961;-74
2021/04/20 11:55:45;;;;;;;15.97;14.27;;;16.60;84.10;;;;;;5029225;28;20556;-72
2021/04/20 11:58:23;;;;;;;16.20;14.27;;;16.60;83.90;;;;;;5029840;28;21156;-72
2021/04/20 12:00:57;;;;;;;17.20;13.40;;;16.70;84.50;;;;;;5029535;28;20437;-73
2021/04/20 12:03:24;;;;;;;13.47;12.07;;;16.80;83.90;;;;;;5032270;28;20428;-73
2021/04/20 12:05:55;;;;;;;15.07;13.57;;;16.80;83.60;;;;;;5032059;28;20442;-73
2021/04/20 12:08:27;;;;;;;15.03;12.70;;;16.80;83.10;;;;;;5031288;28;20449;-74
2021/04/20 12:10:53;;;;;;;16.77;14.17;;;16.90;83.60;;;;;;5024054;28;20470;-73
2021/04/20 12:13:31;;;;;;;14.77;13.17;;;17.00;83.30;;;;;;5025384;28;20514;-73
2021/04/20 12:16:05;;;;;;;16.20;14.43;;;17.10;84.00;;;;;;5024264;28;20481;-73
2021/04/20 12:18:32;;;;;;;16.13;14.40;;;17.10;84.30;;;;;;5025196;28;20451;-73
2021/04/20 12:21:05;;;;;;;30.83;15.90;;;17.20;84.30;;;;;;5036146;28;20521;-73
2021/04/20 12:23:33;;;;;;;19.03;14.57;;;17.40;84.40;;;;;;5039873;28;20449;-73
2021/04/20 12:26:01;;;;;;;20.57;15.03;;;17.50;84.00;;;;;;5024007;28;20437;-73
2021/04/20 12:28:29;;;;;;;19.73;15.73;;;17.50;83.60;;;;;;5024530;28;20456;-73
2021/04/20 12:30:54;;;;;;;16.20;12.80;;;17.60;83.10;;;;;;5025124;28;20418;-73
2021/04/20 12:33:34;;;;;;;15.13;13.63;;;17.70;83.00;;;;;;5024529;28;20423;-74
2021/04/20 12:36:00;;;;;;;18.60;15.88;;;17.80;82.60;;;;;;5024377;28;20473;-73
2021/04/20 12:38:31;;;;;;;21.63;14.93;;;17.70;82.30;;;;;;5024143;28;20877;-74
2021/04/20 12:41:02;;;;;;;16.07;13.60;;;17.60;82.40;;;;;;5024769;28;20421;-73
2021/04/20 12:43:32;;;;;;;16.50;14.80;;;17.70;82.00;;;;;;5024344;28;20416;-73
2021/04/20 12:46:05;;;;;;;15.10;13.60;;;17.80;81.50;;;;;;5024423;28;20191;-72
2021/04/20 12:48:32;;;;;;;14.70;13.07;;;17.90;81.50;;;;;;5024798;28;20445;-72
2021/04/20 12:50:58;;;;;;;17.00;14.37;;;18.10;80.90;;;;;;5024231;28;20424;-73
2021/04/20 12:53:27;;;;;;;16.20;14.60;;;18.10;79.60;;;;;;5023634;28;20762;-73
2021/04/20 12:55:54;;;;;;;16.60;14.53;;;17.80;78.80;;;;;;5024903;28;21033;-73
2021/04/20 12:58:26;;;;;;;15.77;14.17;;;17.50;78.80;;;;;;5024770;28;20979;-74